createdAt,value
2018-12-08T00:00:14.062Z,10.87
2018-12-08T00:02:44.083Z,15.93
2018-12-08T00:05:13.948Z,14.93
2018-12-08T00:07:44.125Z,9.13
2018-12-08T00:10:13.977Z,10.63
2018-12-08T00:12:43.662Z,12.87
2018-12-08T00:15:13.451Z,13.17
2018-12-08T00:17:43.471Z,12.30
2018-12-08T00:20:16.311Z,12.10
2018-12-08T00:22:46.287Z,7.33
2018-12-08T00:25:16.520Z,10.00
2018-12-08T00:27:46.192Z,10.77
2018-12-08T00:30:52.569Z,11.63
2018-12-08T00:33:25.267Z,11.93
2018-12-08T00:35:55.829Z,8.80
2018-12-08T00:38:25.620Z,12.97
2018-12-08T00:40:55.661Z,12.93
2018-12-08T00:43:25.433Z,8.03
2018-12-08T00:45:55.039Z,7.37
2018-12-08T00:48:25.147Z,11.40
2018-12-08T00:50:54.972Z,6.97
2018-12-08T00:53:24.728Z,17.27
2018-12-08T00:55:54.799Z,10.77
2018-12-08T00:58:24.711Z,9.03
2018-12-08T01:00:54.283Z,14.17
2018-12-08T01:03:23.941Z,14.73
2018-12-08T01:05:53.880Z,15.37
2018-12-08T01:08:23.895Z,12.77
2018-12-08T01:10:54.311Z,10.47
2018-12-08T01:13:24.822Z,12.27
2018-12-08T01:15:54.889Z,10.57
2018-12-08T01:18:25.261Z,10.87
2018-12-08T01:20:56.154Z,7.80
2018-12-08T01:23:26.118Z,6.93
2018-12-08T01:25:56.059Z,12.60
2018-12-08T01:28:28.989Z,10.03
2018-12-08T01:30:58.817Z,13.17
2018-12-08T01:33:29.157Z,11.23
2018-12-08T01:35:59.094Z,8.47
2018-12-08T01:38:32.120Z,10.40
2018-12-08T01:41:02.062Z,10.80
2018-12-08T01:43:32.599Z,13.00
2018-12-08T01:46:04.209Z,11.67
2018-12-08T01:48:37.718Z,6.07
2018-12-08T01:51:09.667Z,10.93
2018-12-08T01:53:40.110Z,9.13
2018-12-08T01:56:10.336Z,10.37
2018-12-08T01:58:43.777Z,7.63
2018-12-08T02:01:13.480Z,8.03
2018-12-08T02:03:46.964Z,6.80
2018-12-08T02:06:16.583Z,8.97
2018-12-08T02:08:46.777Z,9.50
2018-12-08T02:11:24.677Z,12.50
2018-12-08T02:13:47.054Z,13.17
2018-12-08T02:16:17.740Z,12.17
2018-12-08T02:18:47.280Z,14.23
2018-12-08T02:21:16.912Z,13.07
2018-12-08T02:23:46.708Z,7.77
2018-12-08T02:26:16.227Z,8.57
2018-12-08T02:28:46.167Z,13.03
2018-12-08T02:31:15.743Z,6.77
2018-12-08T02:33:45.602Z,11.93
2018-12-08T02:36:20.568Z,10.40
2018-12-08T02:38:50.946Z,8.90
2018-12-08T02:41:22.426Z,10.10
2018-12-08T02:43:52.804Z,10.63
2018-12-08T02:46:23.061Z,15.47
2018-12-08T02:48:52.483Z,12.57
2018-12-08T02:51:23.204Z,13.10
2018-12-08T02:53:53.250Z,7.27
2018-12-08T02:56:23.428Z,9.60
2018-12-08T02:58:56.045Z,8.63
2018-12-08T03:01:26.436Z,10.53
2018-12-08T03:03:56.615Z,13.87
2018-12-08T03:06:32.493Z,10.23
2018-12-08T03:09:02.569Z,12.33
2018-12-08T03:11:32.859Z,8.77
2018-12-08T03:14:02.502Z,9.20
2018-12-08T03:16:32.339Z,12.57
2018-12-08T03:19:02.555Z,12.23
2018-12-08T03:21:32.622Z,9.13
2018-12-08T03:24:03.080Z,12.43
2018-12-08T03:26:33.957Z,8.33
2018-12-08T03:29:04.052Z,9.67
2018-12-08T03:31:34.483Z,7.47
2018-12-08T03:34:05.042Z,7.23
2018-12-08T03:36:34.767Z,12.20
2018-12-08T03:39:05.552Z,7.03
2018-12-08T03:41:35.402Z,8.10
2018-12-08T03:44:04.951Z,9.77
2018-12-08T03:46:35.485Z,7.27
2018-12-08T03:49:05.691Z,9.50
2018-12-08T03:51:35.773Z,10.50
2018-12-08T03:54:09.941Z,12.00
2018-12-08T03:56:40.047Z,11.23
2018-12-08T03:59:12.814Z,10.73
2018-12-08T04:01:45.527Z,10.47
2018-12-08T04:04:15.725Z,9.80
2018-12-08T04:06:45.835Z,6.77
2018-12-08T04:09:16.060Z,11.67
2018-12-08T04:11:46.080Z,7.27
2018-12-08T04:14:19.006Z,8.80
2018-12-08T04:16:49.350Z,9.87
2018-12-08T04:19:19.438Z,13.00
2018-12-08T04:21:49.174Z,9.37
2018-12-08T04:24:19.023Z,10.70
2018-12-08T04:26:49.108Z,9.17
2018-12-08T04:29:18.986Z,11.23
2018-12-08T04:31:51.522Z,14.73
2018-12-08T04:34:22.062Z,10.77
2018-12-08T04:36:51.820Z,13.60
2018-12-08T04:39:21.794Z,13.40
2018-12-08T04:41:51.834Z,9.63
2018-12-08T04:44:21.622Z,11.30
2018-12-08T04:46:52.255Z,9.10
2018-12-08T04:49:24.946Z,12.23
2018-12-08T04:51:54.741Z,14.67
2018-12-08T04:54:24.411Z,11.70
2018-12-08T04:56:54.443Z,15.13
2018-12-08T04:59:24.748Z,10.53
2018-12-08T05:01:58.101Z,10.00
2018-12-08T05:04:27.640Z,11.20
2018-12-08T05:06:58.246Z,10.50
2018-12-08T05:09:28.050Z,12.03
2018-12-08T05:11:57.894Z,9.47
2018-12-08T05:14:28.264Z,9.30
2018-12-08T05:16:58.774Z,11.23
2018-12-08T05:19:28.812Z,12.13
2018-12-08T05:22:01.201Z,14.43
2018-12-08T05:24:30.996Z,10.77
2018-12-08T05:27:00.880Z,11.63
2018-12-08T05:29:31.358Z,9.53
2018-12-08T05:32:01.664Z,9.10
2018-12-08T05:34:31.530Z,12.80
2018-12-08T05:37:01.388Z,14.20
2018-12-08T05:39:33.775Z,12.57
2018-12-08T05:42:06.420Z,11.23
2018-12-08T05:44:36.181Z,9.90
2018-12-08T05:47:08.757Z,9.27
2018-12-08T05:49:39.869Z,8.57
2018-12-08T05:52:10.119Z,11.13
2018-12-08T05:54:40.894Z,17.10
2018-12-08T05:57:11.005Z,12.40
2018-12-08T05:59:41.489Z,11.57
2018-12-08T06:02:11.429Z,10.80
2018-12-08T06:04:41.273Z,9.80
2018-12-08T06:07:12.404Z,12.03
2018-12-08T06:09:42.127Z,7.43
2018-12-08T06:12:11.902Z,9.63
2018-12-08T06:14:44.559Z,10.50
2018-12-08T06:17:15.071Z,8.97
2018-12-08T06:19:45.275Z,13.57
2018-12-08T06:22:15.958Z,10.03
2018-12-08T06:24:48.181Z,12.17
2018-12-08T06:27:52.214Z,11.80
2018-12-08T06:30:23.465Z,9.33
2018-12-08T06:32:53.551Z,12.80
2018-12-08T06:35:23.483Z,8.10
2018-12-08T06:37:56.959Z,13.53
2018-12-08T06:40:29.307Z,11.13
2018-12-08T06:42:57.914Z,10.77
2018-12-08T06:45:27.859Z,7.87
2018-12-08T06:47:59.767Z,10.87
2018-12-08T06:50:29.650Z,8.43
2018-12-08T06:53:00.922Z,8.00
2018-12-08T06:55:29.575Z,7.00
2018-12-08T06:57:59.502Z,6.20
2018-12-08T07:00:29.814Z,9.37
2018-12-08T07:02:59.909Z,7.30
2018-12-08T07:05:30.075Z,7.83
2018-12-08T07:08:02.685Z,11.83
2018-12-08T07:10:34.251Z,10.40
2018-12-08T07:13:10.925Z,11.27
2018-12-08T07:15:48.282Z,9.47
2018-12-08T07:18:27.159Z,12.67
2018-12-08T07:20:58.784Z,5.67
2018-12-08T07:23:30.561Z,6.63
2018-12-08T07:26:01.105Z,8.60
2018-12-08T07:28:30.852Z,7.53
2018-12-08T07:31:04.300Z,8.20
2018-12-08T07:33:37.347Z,7.57
2018-12-08T07:36:14.392Z,13.07
2018-12-08T07:38:44.803Z,9.03
2018-12-08T07:41:20.190Z,8.10
2018-12-08T07:43:57.959Z,7.93
2018-12-08T07:46:28.530Z,5.07
2018-12-08T07:49:01.173Z,5.60
2018-12-08T07:51:31.806Z,10.97
2018-12-08T07:54:05.401Z,10.07
2018-12-08T07:56:35.667Z,5.60
2018-12-08T07:59:17.407Z,8.27
2018-12-08T08:01:47.371Z,6.27
2018-12-08T08:04:18.339Z,8.07
2018-12-08T08:06:49.553Z,10.73
2018-12-08T08:09:19.856Z,7.40
2018-12-08T08:11:52.023Z,6.53
2018-12-08T08:14:23.472Z,8.67
2018-12-08T08:16:56.205Z,10.13
2018-12-08T08:19:24.487Z,7.30
2018-12-08T08:21:59.072Z,6.43
2018-12-08T08:24:33.753Z,8.23
2018-12-08T08:27:06.094Z,10.60
2018-12-08T08:29:38.223Z,7.57
2018-12-08T08:32:06.277Z,8.77
2018-12-08T08:34:40.083Z,7.27
2018-12-08T08:37:13.792Z,7.27
2018-12-08T08:39:46.221Z,8.10
2018-12-08T08:42:18.759Z,14.13
2018-12-08T08:44:52.574Z,7.33
2018-12-08T08:47:24.220Z,8.50
2018-12-08T08:49:57.963Z,5.83
2018-12-08T08:52:32.861Z,5.60
2018-12-08T08:55:03.463Z,8.77
2018-12-08T08:57:33.504Z,7.13
2018-12-08T09:00:04.601Z,4.87
2018-12-08T09:02:35.290Z,6.30
2018-12-08T09:05:05.771Z,5.97
2018-12-08T09:07:36.414Z,9.17
2018-12-08T09:10:10.215Z,8.83
2018-12-08T09:12:39.959Z,6.00
2018-12-08T09:15:10.383Z,6.73
2018-12-08T09:17:40.628Z,6.00
2018-12-08T09:20:11.467Z,7.90
2018-12-08T09:22:41.823Z,4.70
2018-12-08T09:25:12.057Z,4.07
2018-12-08T09:27:45.295Z,4.80
2018-12-08T09:30:15.830Z,4.13
2018-12-08T09:32:45.985Z,4.20
2018-12-08T09:35:16.503Z,5.20
2018-12-08T09:37:46.229Z,5.53
2018-12-08T09:40:19.156Z,5.23
2018-12-08T09:42:52.353Z,6.07
2018-12-08T09:45:22.935Z,7.07
2018-12-08T09:47:52.761Z,4.77
2018-12-08T09:50:23.751Z,4.30
2018-12-08T09:53:15.825Z,5.87
2018-12-08T09:55:48.501Z,5.93
2018-12-08T09:58:21.293Z,5.43
2018-12-08T10:00:51.279Z,3.87
2018-12-08T10:03:21.069Z,5.03
2018-12-08T10:05:50.739Z,4.60
2018-12-08T10:08:21.051Z,4.13
2018-12-08T10:10:51.584Z,7.17
2018-12-08T10:13:24.743Z,5.47
2018-12-08T10:15:55.447Z,6.07
2018-12-08T10:18:26.094Z,4.17
2018-12-08T10:20:56.018Z,4.70
2018-12-08T10:23:26.410Z,4.20
2018-12-08T10:25:56.374Z,3.20
2018-12-08T10:28:26.314Z,4.30
2018-12-08T10:30:56.556Z,1.97
2018-12-08T10:33:28.326Z,2.30
2018-12-08T10:36:00.528Z,4.40
2018-12-08T10:38:31.276Z,3.97
2018-12-08T10:41:01.096Z,6.40
2018-12-08T10:43:34.082Z,8.07
2018-12-08T10:46:01.962Z,4.73
2018-12-08T10:48:39.754Z,5.87
2018-12-08T10:51:13.896Z,3.83
2018-12-08T10:53:41.013Z,2.77
2018-12-08T10:56:13.040Z,5.47
2018-12-08T10:58:42.735Z,4.13
2018-12-08T11:01:24.960Z,4.40
2018-12-08T11:03:54.704Z,2.33
2018-12-08T11:06:25.132Z,2.70
2018-12-08T11:08:56.267Z,2.53
2018-12-08T11:11:26.691Z,4.17
2018-12-08T11:14:02.725Z,2.53
2018-12-08T11:16:30.581Z,2.30
2018-12-08T11:18:59.782Z,3.20
2018-12-08T11:21:31.310Z,3.33
2018-12-08T11:24:01.621Z,4.07
2018-12-08T11:26:32.064Z,2.07
2018-12-08T11:29:02.807Z,3.00
2018-12-08T11:31:33.126Z,2.40
2018-12-08T11:34:03.653Z,2.17
2018-12-08T11:36:33.720Z,3.57
2018-12-08T11:39:03.949Z,3.30
2018-12-08T11:41:33.769Z,5.83
2018-12-08T11:44:03.735Z,3.50
2018-12-08T11:46:33.579Z,2.57
2018-12-08T11:49:03.437Z,2.40
2018-12-08T11:51:33.642Z,2.27
2018-12-08T11:54:03.425Z,3.40
2018-12-08T11:56:33.866Z,2.83
2018-12-08T11:59:04.092Z,2.70
2018-12-08T12:01:34.121Z,3.30
2018-12-08T12:04:04.602Z,2.73
2018-12-08T12:06:34.322Z,2.80
2018-12-08T12:09:04.962Z,4.40
2018-12-08T12:11:35.209Z,2.17
2018-12-08T12:14:05.469Z,1.80
2018-12-08T12:16:35.960Z,1.77
2018-12-08T12:19:06.557Z,2.07
2018-12-08T12:21:36.274Z,2.73
2018-12-08T12:24:06.585Z,2.83
2018-12-08T12:26:39.823Z,3.53
2018-12-08T12:29:09.709Z,1.67
2018-12-08T12:31:40.305Z,3.07
2018-12-08T12:34:10.335Z,3.00
2018-12-08T12:36:40.592Z,3.37
2018-12-08T12:39:10.583Z,2.87
2018-12-08T12:41:40.958Z,3.03
2018-12-08T12:44:11.172Z,1.83
2018-12-08T12:46:41.874Z,4.17
2018-12-08T12:49:11.784Z,2.60
2018-12-08T12:51:41.604Z,3.97
2018-12-08T12:54:12.132Z,4.23
2018-12-08T12:56:42.442Z,3.63
2018-12-08T12:59:12.043Z,4.60
2018-12-08T13:01:42.990Z,3.87
2018-12-08T13:04:13.320Z,2.97
2018-12-08T13:06:43.746Z,5.33
2018-12-08T13:09:13.567Z,4.00
2018-12-08T13:11:44.766Z,4.53
2018-12-08T13:14:14.270Z,5.27
2018-12-08T13:16:44.520Z,7.67
2018-12-08T13:19:14.515Z,7.30
2018-12-08T13:21:44.215Z,7.30
2018-12-08T13:24:14.581Z,6.13
2018-12-08T13:26:45.061Z,6.27
2018-12-08T13:29:14.545Z,7.60
2018-12-08T13:31:45.730Z,7.20
2018-12-08T13:34:29.977Z,5.23
2018-12-08T13:37:00.645Z,7.43
2018-12-08T13:39:31.029Z,6.83
2018-12-08T13:42:04.755Z,8.43
2018-12-08T13:44:42.135Z,7.07
2018-12-08T13:47:12.797Z,7.47
2018-12-08T13:49:42.907Z,10.60
2018-12-08T13:52:14.209Z,9.37
2018-12-08T13:54:51.725Z,5.83
2018-12-08T13:57:21.561Z,8.03
2018-12-08T13:59:58.050Z,8.63
2018-12-08T14:02:29.567Z,10.23
2018-12-08T14:04:59.822Z,8.13
2018-12-08T14:07:30.219Z,11.13
2018-12-08T14:10:00.580Z,9.83
2018-12-08T14:12:31.784Z,10.20
2018-12-08T14:15:03.768Z,7.80
2018-12-08T14:17:31.943Z,7.77
2018-12-08T14:20:33.037Z,8.43
2018-12-08T14:23:04.015Z,5.50
2018-12-08T14:25:34.638Z,9.20
2018-12-08T14:28:05.365Z,7.83
2018-12-08T14:30:35.291Z,7.67
2018-12-08T14:33:06.398Z,8.00
2018-12-08T14:35:36.649Z,7.00
2018-12-08T14:38:07.225Z,8.47
2018-12-08T14:40:37.736Z,6.53
2018-12-08T14:43:10.957Z,9.57
2018-12-08T14:45:41.900Z,8.77
2018-12-08T14:48:12.285Z,7.87
2018-12-08T14:50:41.933Z,7.70
2018-12-08T14:53:12.463Z,8.27
2018-12-08T14:55:43.061Z,6.90
2018-12-08T14:58:12.867Z,8.33
2018-12-08T15:00:43.542Z,8.00
2018-12-08T15:03:14.067Z,8.87
2018-12-08T15:05:45.206Z,6.57
2018-12-08T15:08:16.559Z,10.10
2018-12-08T15:10:46.575Z,6.60
2018-12-08T15:13:16.642Z,3.57
2018-12-08T15:15:46.419Z,4.10
2018-12-08T15:18:21.228Z,10.47
2018-12-08T15:20:53.666Z,7.87
2018-12-08T15:23:24.320Z,6.47
2018-12-08T15:25:54.303Z,6.63
2018-12-08T15:28:24.260Z,6.70
2018-12-08T15:30:56.758Z,4.40
2018-12-08T15:33:26.576Z,5.10
2018-12-08T15:35:56.481Z,5.77
2018-12-08T15:38:31.472Z,4.63
2018-12-08T15:41:01.478Z,5.63
2018-12-08T15:43:31.187Z,7.53
2018-12-08T15:46:01.034Z,6.33
2018-12-08T15:48:30.778Z,8.67
2018-12-08T15:51:00.995Z,8.10
2018-12-08T15:53:31.266Z,7.77
2018-12-08T15:56:01.102Z,7.93
2018-12-08T15:58:31.205Z,10.07
2018-12-08T16:01:01.068Z,10.87
2018-12-08T16:03:31.064Z,8.40
2018-12-08T16:06:01.166Z,8.70
2018-12-08T16:08:30.910Z,7.83
2018-12-08T16:11:00.940Z,10.20
2018-12-08T16:13:30.777Z,8.40
2018-12-08T16:16:00.737Z,12.73
2018-12-08T16:18:33.207Z,10.87
2018-12-08T16:21:04.890Z,9.33
2018-12-08T16:23:34.979Z,8.60
2018-12-08T16:26:07.479Z,9.57
2018-12-08T16:28:38.518Z,12.37
2018-12-08T16:31:11.387Z,44.53
2018-12-08T16:33:41.452Z,14.67
2018-12-08T16:36:12.974Z,10.40
2018-12-08T16:38:43.218Z,8.13
2018-12-08T16:41:16.150Z,7.93
2018-12-08T16:43:43.572Z,9.60
2018-12-08T16:46:13.370Z,11.03
2018-12-08T16:48:47.349Z,9.37
2018-12-08T16:51:14.149Z,9.00
2018-12-08T16:53:45.593Z,9.37
2018-12-08T16:56:16.484Z,15.33
2018-12-08T16:58:47.315Z,13.60
2018-12-08T17:01:18.809Z,9.47
2018-12-08T17:03:49.137Z,8.67
2018-12-08T17:06:20.475Z,12.63
2018-12-08T17:08:51.859Z,11.90
2018-12-08T17:11:22.467Z,10.63
2018-12-08T17:13:52.840Z,8.07
2018-12-08T17:16:23.062Z,10.90
2018-12-08T17:18:53.290Z,11.83
2018-12-08T17:21:23.285Z,9.63
2018-12-08T17:23:53.709Z,9.97
2018-12-08T17:26:23.475Z,12.23
2018-12-08T17:28:56.100Z,11.63
2018-12-08T17:31:27.066Z,10.83
2018-12-08T17:33:57.384Z,10.77
2018-12-08T17:36:27.870Z,10.53
2018-12-08T17:38:58.162Z,11.57
2018-12-08T17:41:29.206Z,11.83
2018-12-08T17:43:59.406Z,11.37
2018-12-08T17:46:32.582Z,8.43
2018-12-08T17:49:03.108Z,13.03
2018-12-08T17:51:33.583Z,10.00
2018-12-08T17:54:04.308Z,11.47
2018-12-08T17:56:34.520Z,10.47
2018-12-08T17:59:04.350Z,9.57
2018-12-08T18:01:34.494Z,12.57
2018-12-08T18:04:05.792Z,10.93
2018-12-08T18:06:36.250Z,10.43
2018-12-08T18:09:07.682Z,11.93
2018-12-08T18:11:38.593Z,13.20
2018-12-08T18:14:09.252Z,18.27
2018-12-08T18:16:39.127Z,10.67
2018-12-08T18:19:11.639Z,15.30
2018-12-08T18:21:39.493Z,12.23
2018-12-08T18:24:10.187Z,10.10
2018-12-08T18:26:40.120Z,13.57
2018-12-08T18:29:10.119Z,17.07
2018-12-08T18:31:40.217Z,15.27
2018-12-08T18:34:10.209Z,15.73
2018-12-08T18:36:39.824Z,14.30
2018-12-08T18:39:09.944Z,19.63
2018-12-08T18:41:39.688Z,20.57
2018-12-08T18:44:09.367Z,15.33
2018-12-08T18:46:40.029Z,18.30
2018-12-08T18:49:10.247Z,14.43
2018-12-08T18:51:41.063Z,16.27
2018-12-08T18:54:11.952Z,18.20
2018-12-08T18:56:41.567Z,16.50
2018-12-08T18:59:11.237Z,19.07
2018-12-08T19:01:40.776Z,12.23
2018-12-08T19:04:11.265Z,16.50
2018-12-08T19:06:41.610Z,19.47
2018-12-08T19:09:11.757Z,16.23
2018-12-08T19:11:42.324Z,15.13
2018-12-08T19:14:12.138Z,16.07
2018-12-08T19:16:43.399Z,15.97
2018-12-08T19:19:13.930Z,16.90
2018-12-08T19:21:43.972Z,22.10
2018-12-08T19:24:14.072Z,15.40
2018-12-08T19:26:45.260Z,15.97
2018-12-08T19:29:16.137Z,15.80
2018-12-08T19:31:46.592Z,14.40
2018-12-08T19:34:16.534Z,15.27
2018-12-08T19:36:46.102Z,19.83
2018-12-08T19:39:16.554Z,18.10
2018-12-08T19:41:47.879Z,15.43
2018-12-08T19:44:21.120Z,16.00
2018-12-08T19:46:51.019Z,21.50
2018-12-08T19:49:21.860Z,15.73
2018-12-08T19:51:51.506Z,15.93
2018-12-08T19:54:22.212Z,20.13
2018-12-08T19:56:51.893Z,17.37
2018-12-08T19:59:22.322Z,18.33
2018-12-08T20:01:53.455Z,18.43
2018-12-08T20:04:23.316Z,18.00
2018-12-08T20:06:53.414Z,21.23
2018-12-08T20:09:24.533Z,17.23
2018-12-08T20:11:54.974Z,16.87
2018-12-08T20:14:25.830Z,19.83
2018-12-08T20:16:55.714Z,19.27
2018-12-08T20:19:25.788Z,17.43
2018-12-08T20:22:00.268Z,16.50
2018-12-08T20:24:31.378Z,20.57
2018-12-08T20:27:02.614Z,17.53
2018-12-08T20:29:33.332Z,14.10
2018-12-08T20:32:05.937Z,16.77
2018-12-08T20:34:37.302Z,21.57
2018-12-08T20:37:07.739Z,16.03
2018-12-08T20:39:37.514Z,15.70
2018-12-08T20:42:07.675Z,21.27
2018-12-08T20:44:38.468Z,18.47
2018-12-08T20:47:11.266Z,14.27
2018-12-08T20:49:41.744Z,19.47
2018-12-08T20:52:11.387Z,20.80
2018-12-08T20:54:41.525Z,14.40
2018-12-08T20:57:11.973Z,14.67
2018-12-08T20:59:42.982Z,19.53
2018-12-08T21:02:12.888Z,14.67
2018-12-08T21:04:42.499Z,12.37
2018-12-08T21:07:12.510Z,14.37
2018-12-08T21:09:42.682Z,15.97
2018-12-08T21:12:12.740Z,11.90
2018-12-08T21:14:42.538Z,11.50
2018-12-08T21:17:12.576Z,12.37
2018-12-08T21:19:42.012Z,10.83
2018-12-08T21:22:11.774Z,11.90
2018-12-08T21:24:41.368Z,13.03
2018-12-08T21:27:11.290Z,8.20
2018-12-08T21:29:41.198Z,7.00
2018-12-08T21:32:11.133Z,9.10
2018-12-08T21:34:40.953Z,8.03
2018-12-08T21:37:12.112Z,9.50
2018-12-08T21:39:41.882Z,6.37
2018-12-08T21:42:11.887Z,10.97
2018-12-08T21:44:42.846Z,11.93
2018-12-08T21:47:12.488Z,7.80
2018-12-08T21:49:42.309Z,7.03
2018-12-08T21:52:12.573Z,6.00
2018-12-08T21:54:42.901Z,5.10
2018-12-08T21:57:12.922Z,6.73
2018-12-08T21:59:42.664Z,7.07
2018-12-08T22:02:12.162Z,8.83
2018-12-08T22:04:41.912Z,7.70
2018-12-08T22:07:12.808Z,5.20
2018-12-08T22:09:43.024Z,7.63
2018-12-08T22:12:12.925Z,5.30
2018-12-08T22:15:01.375Z,4.17
2018-12-08T22:17:31.457Z,4.30
2018-12-08T22:20:04.622Z,4.00
2018-12-08T22:22:34.612Z,2.60
2018-12-08T22:25:04.818Z,4.93
2018-12-08T22:27:34.488Z,4.93
2018-12-08T22:30:04.861Z,5.27
2018-12-08T22:32:34.506Z,3.03
2018-12-08T22:35:07.474Z,3.20
2018-12-08T22:37:37.441Z,4.60
2018-12-08T22:40:08.419Z,1.30
2018-12-08T22:42:40.621Z,3.77
2018-12-08T22:45:08.474Z,2.43
2018-12-08T22:47:38.881Z,2.97
2018-12-08T22:50:09.293Z,2.60
2018-12-08T22:52:39.375Z,6.40
2018-12-08T22:55:11.761Z,1.93
2018-12-08T22:57:41.507Z,4.20
2018-12-08T23:00:48.201Z,2.83
2018-12-08T23:03:18.419Z,1.17
2018-12-08T23:05:48.165Z,2.33
2018-12-08T23:08:17.785Z,2.43
2018-12-08T23:10:47.653Z,1.80
2018-12-08T23:13:17.266Z,1.87
2018-12-08T23:15:47.166Z,2.73
2018-12-08T23:18:17.101Z,2.27
2018-12-08T23:20:47.258Z,0.70
2018-12-08T23:23:20.053Z,2.20
2018-12-08T23:25:50.579Z,0.53
2018-12-08T23:28:20.274Z,0.90
2018-12-08T23:30:53.661Z,2.50
2018-12-08T23:33:23.578Z,1.90
2018-12-08T23:35:53.318Z,0.90
2018-12-08T23:38:23.099Z,1.00
2018-12-08T23:40:52.930Z,1.83
2018-12-08T23:43:22.900Z,0.80
2018-12-08T23:45:55.253Z,1.40
2018-12-08T23:48:22.724Z,2.67
2018-12-08T23:50:52.477Z,2.30
2018-12-08T23:53:22.063Z,3.93
2018-12-08T23:55:54.622Z,5.00
2018-12-08T23:58:24.597Z,1.53
